Time;durP1;ratioP1;P1;durP2;ratioP2;P2;SDS_P1;SDS_P2;PMS_P1;PMS_P2;Temp;Humidity;BMP_temperature;BMP_pressure;BME280_temperature;BME280_humidity;BME280_pressure;Samples;Min_cycle;Max_cycle;Signal;HPM_P1;HPM_P2
2022/11/22 00:00:17;;;;;;;65.55;28.83;;;;;;;0.58;88.26;97424.26;1682165;85;25653;-71
2022/11/22 00:02:43;;;;;;;69.47;30.12;;;;;;;0.54;88.33;97436.69;1682314;85;25764;-71
2022/11/22 00:05:10;;;;;;;65.20;29.67;;;;;;;0.53;88.39;97432.92;1682255;85;25415;-72
2022/11/22 00:07:37;;;;;;;66.28;30.40;;;;;;;0.53;88.17;97436.44;1682254;85;27293;-72
2022/11/22 00:10:05;;;;;;;78.97;33.13;;;;;;;0.50;88.21;97438.34;1682135;85;25587;-72
2022/11/22 00:12:32;;;;;;;66.22;28.52;;;;;;;0.47;88.10;97438.89;1682380;85;25573;-71
2022/11/22 00:14:58;;;;;;;70.70;34.13;;;;;;;0.34;87.71;97444.33;1682182;85;25638;-71
2022/11/22 00:17:24;;;;;;;66.97;31.77;;;;;;;0.24;88.01;97439.28;1682196;85;25506;-71
2022/11/22 00:19:51;;;;;;;80.32;36.03;;;;;;;0.21;87.99;97440.36;1682445;83;28062;-72
2022/11/22 00:22:17;;;;;;;86.72;38.78;;;;;;;0.14;87.96;97435.81;1682253;85;25521;-72
2022/11/22 00:24:45;;;;;;;88.37;39.13;;;;;;;0.12;88.30;97440.92;1682334;85;25670;-72
2022/11/22 00:27:11;;;;;;;75.25;33.35;;;;;;;0.19;88.52;97442.52;1681862;85;25789;-72
2022/11/22 00:29:38;;;;;;;62.35;29.15;;;;;;;0.22;88.43;97438.73;1682263;85;25834;-72
2022/11/22 00:32:04;;;;;;;85.55;43.38;;;;;;;0.21;88.16;97442.52;1682422;85;27357;-72
2022/11/22 00:34:30;;;;;;;105.05;45.35;;;;;;;0.28;88.67;97442.73;1682277;83;25654;-72
2022/11/22 00:36:56;;;;;;;91.82;39.58;;;;;;;0.34;88.47;97441.63;1682567;85;25606;-72
2022/11/22 00:39:23;;;;;;;70.28;32.25;;;;;;;0.39;88.55;97443.50;1682536;85;26289;-73
2022/11/22 00:41:49;;;;;;;73.85;32.83;;;;;;;0.33;87.56;97444.08;1682461;85;25680;-73
2022/11/22 00:44:15;;;;;;;79.85;33.40;;;;;;;0.14;87.10;97442.55;1682558;85;27332;-73
2022/11/22 00:46:42;;;;;;;79.87;31.77;;;;;;;-0.01;87.10;97440.16;1682604;85;25923;-72
2022/11/22 00:49:08;;;;;;;68.75;30.82;;;;;;;-0.09;87.60;97444.22;1682296;85;25480;-72
2022/11/22 00:51:34;;;;;;;74.05;34.78;;;;;;;-0.06;88.14;97447.72;1682160;84;25673;-72
2022/11/22 00:54:01;;;;;;;76.72;36.85;;;;;;;0.02;88.40;97451.73;1682280;85;25424;-73
2022/11/22 00:56:27;;;;;;;65.65;30.35;;;;;;;0.08;88.24;97441.73;1682145;85;27441;-72
2022/11/22 00:58:53;;;;;;;54.03;27.15;;;;;;;0.14;88.48;97443.34;1682195;84;25480;-72
2022/11/22 01:01:19;;;;;;;71.92;33.67;;;;;;;0.12;87.88;97444.95;1682625;85;25424;-73
2022/11/22 01:03:46;;;;;;;74.40;33.02;;;;;;;0.11;88.08;97445.23;1682456;85;25711;-72
2022/11/22 01:06:12;;;;;;;79.25;33.78;;;;;;;0.09;87.90;97444.72;1682708;85;25675;-71
2022/11/22 01:08:38;;;;;;;83.15;38.25;;;;;;;0.11;87.92;97453.31;1682182;84;27406;-71
2022/11/22 01:11:05;;;;;;;95.83;39.88;;;;;;;0.04;87.32;97445.54;1682357;85;25625;-71
2022/11/22 01:13:31;;;;;;;77.58;38.00;;;;;;;0.02;87.36;97440.14;1682202;84;25686;-71
2022/11/22 01:16:04;;;;;;;76.67;35.83;;;;;;;0.06;87.59;97444.70;1682160;84;25665;-71
2022/11/22 01:18:31;;;;;;;81.10;39.18;;;;;;;0.08;87.55;97439.05;1682494;85;25484;-71
2022/11/22 01:20:57;;;;;;;77.75;37.80;;;;;;;0.05;87.07;97441.75;1682652;85;27476;-71
2022/11/22 01:23:24;;;;;;;69.75;32.45;;;;;;;-0.02;87.08;97435.33;1682036;85;25749;-71
2022/11/22 01:25:57;;;;;;;70.15;33.23;;;;;;;-0.06;86.74;97429.42;1682558;85;25769;-72
2022/11/22 01:28:28;;;;;;;75.12;34.20;;;;;;;-0.19;86.85;97430.26;1682082;84;25499;-71
2022/11/22 01:30:55;;;;;;;68.60;31.45;;;;;;;-0.26;87.11;97429.72;1682482;85;25685;-72
2022/11/22 01:33:21;;;;;;;67.37;28.87;;;;;;;-0.33;87.04;97418.44;1682152;83;27407;-72
2022/11/22 01:35:48;;;;;;;53.52;24.10;;;;;;;-0.43;86.93;97424.66;1682376;84;25677;-72
2022/11/22 01:38:14;;;;;;;51.08;21.52;;;;;;;-0.58;87.67;97424.94;1682080;85;25638;-72
2022/11/22 01:40:40;;;;;;;43.87;20.17;;;;;;;-0.68;87.97;97406.94;1682105;85;25814;-73
2022/11/22 01:43:15;;;;;;;44.18;21.55;;;;;;;-0.83;88.07;97405.59;1682188;85;25592;-73
2022/11/22 01:45:45;;;;;;;59.27;26.37;;;;;;;-0.98;88.87;97409.89;1681453;85;28587;-73
2022/11/22 01:48:26;;;;;;;73.15;30.25;;;;;;;-0.96;89.34;97403.71;1682195;85;35048;-73
2022/11/22 01:51:01;;;;;;;54.65;23.57;;;;;;;-0.90;89.07;97391.06;1682519;85;25550;-73
2022/11/22 01:53:36;;;;;;;52.35;25.65;;;;;;;-1.03;88.70;97387.83;1681772;85;25778;-73
2022/11/22 01:56:08;;;;;;;52.75;24.67;;;;;;;-1.04;89.22;97386.75;1682535;85;25604;-72
2022/11/22 01:58:36;;;;;;;;;;;;;;;-0.92;90.03;97390.55;1684863;85;27525;-73
2022/11/22 02:01:03;;;;;;;39.67;17.98;;;;;;;-0.80;90.53;97378.16;1682151;85;25670;-74
2022/11/22 02:03:32;;;;;;;50.70;23.83;;;;;;;-0.71;90.98;97386.48;1682295;84;25684;-73
2022/11/22 02:05:59;;;;;;;55.65;25.88;;;;;;;-0.66;90.95;97391.31;1682396;84;25565;-73
2022/11/22 02:08:52;;;;;;;67.80;29.92;;;;;;;-0.61;90.48;97391.84;1682219;84;25708;-73
2022/11/22 02:11:20;;;;;;;80.25;32.93;;;;;;;-0.61;89.93;97382.98;1682251;84;27460;-73
2022/11/22 02:13:48;;;;;;;73.17;30.45;;;;;;;-0.59;89.79;97393.73;1682418;85;25657;-72
2022/11/22 02:16:14;;;;;;;65.12;29.85;;;;;;;-0.67;88.83;97388.36;1682090;84;25850;-73
2022/11/22 02:18:41;;;;;;;67.00;28.60;;;;;;;-0.78;88.48;97380.02;1682055;84;25813;-74
2022/11/22 02:21:08;;;;;;;71.80;32.20;;;;;;;-0.80;88.76;97379.50;1682126;85;25440;-74
2022/11/22 02:23:49;;;;;;;70.65;32.83;;;;;;;-0.83;88.87;97376.01;1682165;85;27371;-74
2022/11/22 02:26:16;;;;;;;77.27;34.27;;;;;;;-0.86;88.70;97382.74;1662961;85;25616;-74
2022/11/22 02:28:43;;;;;;;76.25;34.60;;;;;;;-0.81;89.12;97385.97;1682161;84;25621;-73
2022/11/22 02:31:29;;;;;;;82.95;36.08;;;;;;;-0.87;88.19;97381.11;1682210;85;25563;-73
2022/11/22 02:33:56;;;;;;;68.07;32.63;;;;;;;-0.96;87.79;97380.03;1692482;83;25605;-74
2022/11/22 02:36:22;;;;;;;72.32;32.28;;;;;;;-1.05;87.83;97383.28;1710193;83;26827;-74
2022/11/22 02:38:49;;;;;;;65.25;28.75;;;;;;;-1.07;88.33;97376.56;1710302;83;26334;-74
2022/11/22 02:41:15;;;;;;;74.40;31.65;;;;;;;-1.02;89.03;97377.37;1710319;83;25643;-74
2022/11/22 02:43:45;;;;;;;81.15;34.15;;;;;;;-1.04;88.53;97374.13;1709889;83;25775;-74
2022/11/22 02:46:20;;;;;;;66.57;30.12;;;;;;;-1.05;88.51;97371.18;1709817;83;25609;-74
2022/11/22 02:48:46;;;;;;;64.97;29.23;;;;;;;-1.04;88.70;97366.59;1710158;83;26510;-74
2022/11/22 02:51:16;;;;;;;56.10;27.30;;;;;;;-1.02;88.82;97361.76;1709808;83;25481;-74
2022/11/22 02:53:43;;;;;;;62.83;28.80;;;;;;;-1.08;88.37;97364.18;1710201;83;25617;-74
2022/11/22 02:56:10;;;;;;;65.47;30.80;;;;;;;-1.10;88.87;97360.97;1709927;83;25727;-74
2022/11/22 02:58:36;;;;;;;73.02;31.82;;;;;;;-1.10;88.74;97357.73;1710469;83;25434;-73
2022/11/22 03:01:02;;;;;;;57.23;27.05;;;;;;;-1.09;88.72;97356.67;1710228;83;27384;-74
2022/11/22 03:03:29;;;;;;;59.05;26.17;;;;;;;-1.11;88.33;97353.96;1710400;83;25466;-74
2022/11/22 03:05:56;;;;;;;56.85;25.00;;;;;;;-1.14;88.28;97350.75;1710324;83;25431;-73
2022/11/22 03:08:22;;;;;;;51.23;24.45;;;;;;;-1.18;88.26;97352.91;1710232;83;25770;-73
2022/11/22 03:10:48;;;;;;;56.60;23.95;;;;;;;-1.21;88.46;97350.20;1710469;83;25660;-72
2022/11/22 03:13:15;;;;;;;64.25;26.97;;;;;;;-1.27;88.47;97344.55;1710522;83;27383;-73
2022/11/22 03:15:41;;;;;;;47.38;22.07;;;;;;;-1.30;88.88;97354.49;1710387;83;25487;-73
2022/11/22 03:18:07;;;;;;;58.13;26.02;;;;;;;-1.36;89.00;97347.53;1710500;83;25712;-72
2022/11/22 03:20:34;;;;;;;58.42;27.30;;;;;;;-1.40;88.99;97344.55;1710022;83;25765;-73
2022/11/22 03:23:00;;;;;;;57.62;27.32;;;;;;;-1.38;89.12;97343.77;1710755;83;25592;-73
2022/11/22 03:25:27;;;;;;;54.13;25.10;;;;;;;-1.37;88.83;97341.34;1710050;83;27412;-73
2022/11/22 03:27:53;;;;;;;52.62;24.63;;;;;;;-1.30;89.22;97343.73;1708944;83;25683;-72
2022/11/22 03:30:19;;;;;;;57.20;27.13;;;;;;;-1.28;89.32;97338.38;1707775;83;25704;-73
2022/11/22 03:32:46;;;;;;;56.30;24.70;;;;;;;-1.29;89.07;97330.03;1721864;82;25717;-73
2022/11/22 03:35:12;;;;;;;56.77;25.27;;;;;;;-1.32;88.78;97335.16;1692109;82;25475;-74
2022/11/22 03:37:38;;;;;;;54.48;25.85;;;;;;;-1.34;88.91;97331.39;1682430;85;27576;-74
2022/11/22 03:40:07;;;;;;;52.30;24.02;;;;;;;-1.38;88.62;97331.67;1681883;85;25680;-73
2022/11/22 03:42:34;;;;;;;58.98;26.42;;;;;;;-1.43;88.48;97328.44;1682382;85;25480;-73
2022/11/22 03:45:01;;;;;;;62.25;26.68;;;;;;;-1.44;88.81;97338.90;1682147;85;26529;-73
2022/11/22 03:47:28;;;;;;;59.38;25.52;;;;;;;-1.45;88.82;97334.61;1682336;84;25491;-73
2022/11/22 03:49:56;;;;;;;58.40;25.17;;;;;;;-1.42;89.03;97337.29;1682137;85;27479;-73
2022/11/22 03:52:22;;;;;;;67.22;29.00;;;;;;;-1.45;89.03;97329.77;1682113;85;25744;-73
2022/11/22 03:54:49;;;;;;;64.32;26.12;;;;;;;-1.40;89.63;97333.81;1681995;85;25750;-73
2022/11/22 03:57:16;;;;;;;56.10;25.52;;;;;;;-1.39;89.74;97333.54;1682311;85;26233;-73
2022/11/22 03:59:42;;;;;;;50.65;24.37;;;;;;;-1.33;89.78;97330.86;1682237;85;25615;-72
2022/11/22 04:02:08;;;;;;;46.42;24.23;;;;;;;-1.28;89.74;97339.73;1682349;85;27420;-72
2022/11/22 04:04:34;;;;;;;47.23;22.45;;;;;;;-1.23;89.63;97338.92;1682294;83;25457;-72
2022/11/22 04:07:01;;;;;;;46.08;21.50;;;;;;;-1.18;89.78;97338.91;1682030;85;25696;-72
2022/11/22 04:09:27;;;;;;;43.60;21.33;;;;;;;-1.13;89.90;97332.72;1681911;85;25827;-69
2022/11/22 04:11:54;;;;;;;44.13;21.95;;;;;;;-1.10;89.96;97334.09;1682002;85;25488;-72
2022/11/22 04:17:05;;;;;;;48.45;22.73;;;;;;;-1.07;89.78;97329.52;1681908;85;25482;-72
2022/11/22 04:19:31;;;;;;;49.88;22.30;;;;;;;-1.06;89.55;97323.84;1681986;85;25616;-72
2022/11/22 04:21:57;;;;;;;45.30;21.77;;;;;;;-1.10;89.15;97330.84;1682287;85;25684;-70
2022/11/22 04:27:08;;;;;;;49.75;21.68;;;;;;;-1.13;89.43;97331.38;1681955;85;25764;-72
2022/11/22 04:29:34;;;;;;;52.05;24.75;;;;;;;-1.17;89.18;97333.00;1682298;85;25622;-68
2022/11/22 04:34:45;;;;;;;50.83;23.65;;;;;;;-1.18;89.39;97335.43;1692103;82;25726;-73
2022/11/22 04:37:11;;;;;;;49.10;22.77;;;;;;;-1.16;89.41;97335.95;1702672;84;25583;-72
2022/11/22 04:39:37;;;;;;;43.10;20.23;;;;;;;-1.13;89.53;97334.06;1705949;84;27444;-72
2022/11/22 04:44:49;;;;;;;36.13;17.17;;;;;;;-1.12;89.39;97324.95;1705999;84;25707;-72
2022/11/22 04:52:52;;;;;;;41.50;19.27;;;;;;;-1.17;89.52;97316.34;1706002;84;25566;-72
2022/11/22 04:52:54;;;;;;;47.62;21.25;;;;;;;-1.19;89.46;97313.63;1706447;83;25900;-72
2022/11/22 04:55:21;;;;;;;36.95;18.25;;;;;;;-1.20;89.61;97325.48;1706070;84;25777;-72
2022/11/22 04:57:48;;;;;;;40.98;19.20;;;;;;;-1.22;89.78;97314.98;1697344;84;25583;-73
2022/11/22 05:00:15;;;;;;;41.63;20.50;;;;;;;-1.28;89.70;97314.20;1677867;85;25741;-72
2022/11/22 05:02:41;;;;;;;45.05;21.75;;;;;;;-1.29;89.77;97310.43;1677896;85;25463;-72
2022/11/22 05:05:09;;;;;;;37.55;16.40;;;;;;;-1.30;89.97;97309.61;1699076;84;27468;-73
2022/11/22 05:07:35;;;;;;;36.00;17.90;;;;;;;-1.29;90.17;97307.19;1706160;84;25690;-73
2022/11/22 05:10:02;;;;;;;43.75;20.92;;;;;;;-1.30;90.26;97306.92;1706412;84;25612;-72
2022/11/22 05:12:28;;;;;;;39.40;20.25;;;;;;;-1.27;90.09;97304.23;1706276;84;25860;-72
2022/11/22 05:14:54;;;;;;;41.80;21.10;;;;;;;-1.28;90.00;97307.47;1706331;84;25613;-72
2022/11/22 05:17:21;;;;;;;41.18;21.77;;;;;;;-1.28;90.01;97307.47;1706286;84;27988;-72
2022/11/22 05:19:47;;;;;;;49.20;23.57;;;;;;;-1.27;89.91;97309.60;1706031;84;25671;-72
2022/11/22 05:22:13;;;;;;;38.05;19.20;;;;;;;-1.29;89.93;97307.74;1706293;84;25418;-72
2022/11/22 05:24:39;;;;;;;50.23;22.37;;;;;;;-1.34;89.88;97309.89;1706275;84;25782;-72
2022/11/22 05:27:06;;;;;;;40.48;19.42;;;;;;;-1.36;90.04;97312.59;1706273;84;25595;-72
2022/11/22 05:29:32;;;;;;;39.85;20.92;;;;;;;-1.37;89.91;97319.84;1700511;84;28422;-73
2022/11/22 05:31:58;;;;;;;43.58;22.45;;;;;;;-1.39;90.08;97314.73;1678569;84;25773;-72
2022/11/22 05:34:24;;;;;;;48.33;21.68;;;;;;;-1.35;90.07;97320.38;1678933;85;25711;-72
2022/11/22 05:36:51;;;;;;;47.17;22.52;;;;;;;-1.33;89.98;97310.16;1687850;85;25694;-72
2022/11/22 05:39:17;;;;;;;48.63;23.20;;;;;;;-1.34;90.11;97313.92;1687999;85;25903;-71
2022/11/22 05:41:54;;;;;;;49.77;23.42;;;;;;;-1.33;90.06;97319.55;1688051;85;27464;-71
2022/11/22 05:44:11;;;;;;;41.37;17.07;;;;;;;-1.33;90.05;97319.55;1686478;84;25678;-72
2022/11/22 05:46:37;;;;;;;34.58;15.38;;;;;;;-1.34;89.92;97321.98;1687919;85;25478;-71
2022/11/22 05:49:03;;;;;;;51.55;23.92;;;;;;;-1.42;90.00;97319.83;1687855;85;25725;-72
2022/11/22 05:51:30;;;;;;;54.18;23.77;;;;;;;-1.46;90.10;97320.91;1687992;85;25455;-72
2022/11/22 05:53:56;;;;;;;40.45;17.73;;;;;;;-1.44;90.09;97322.78;1714901;83;28200;-71
2022/11/22 05:56:23;;;;;;;45.98;21.33;;;;;;;-1.43;90.00;97328.44;1716285;83;25803;-72
2022/11/22 05:58:49;;;;;;;46.77;21.80;;;;;;;-1.49;89.93;97328.16;1713993;83;25486;-71
2022/11/22 06:01:21;;;;;;;49.85;24.07;;;;;;;-1.55;90.07;97330.02;1704842;83;25762;-71
2022/11/22 06:03:48;;;;;;;48.25;21.80;;;;;;;-1.54;90.30;97336.21;1704756;83;25686;-71
2022/11/22 06:06:15;;;;;;;50.12;24.55;;;;;;;-1.55;90.37;97326.55;1716808;83;28161;-71
2022/11/22 06:08:45;;;;;;;51.35;24.75;;;;;;;-1.55;90.34;97334.61;1716231;83;25468;-71
2022/11/22 06:11:19;;;;;;;54.50;22.07;;;;;;;-1.53;90.17;97341.31;1716333;83;25541;-71
2022/11/22 06:13:48;;;;;;;47.75;22.45;;;;;;;-1.51;90.22;97346.42;1682622;83;25913;-71
2022/11/22 06:16:16;;;;;;;47.65;22.25;;;;;;;-1.50;90.14;97348.59;1692889;83;25710;-70
2022/11/22 06:18:43;;;;;;;43.55;23.12;;;;;;;-1.49;90.16;97356.37;1701555;83;27419;-71
2022/11/22 06:21:27;;;;;;;47.38;23.20;;;;;;;-1.43;90.36;97359.88;1697053;83;27126;-71
2022/11/22 06:23:56;;;;;;;44.48;21.57;;;;;;;-1.38;90.27;97358.55;1698593;83;25728;-72
2022/11/22 06:26:35;;;;;;;51.65;24.05;;;;;;;-1.35;89.98;97359.35;1694277;83;25886;-71
2022/11/22 06:29:08;;;;;;;41.63;19.90;;;;;;;-1.35;89.77;97366.08;1691737;83;25680;-71
2022/11/22 06:31:36;;;;;;;48.05;21.02;;;;;;;-1.41;89.52;97359.08;1681914;85;27420;-71
2022/11/22 06:34:05;;;;;;;45.67;22.50;;;;;;;-1.44;89.70;97360.95;1688183;83;25664;-71
2022/11/22 06:36:38;;;;;;;50.40;23.65;;;;;;;-1.47;89.83;97365.52;1691143;83;25691;-71
2022/11/22 06:39:13;;;;;;;50.15;23.65;;;;;;;-1.46;89.82;97359.06;1692245;84;25953;-71
2022/11/22 06:41:48;;;;;;;49.20;24.05;;;;;;;-1.47;89.89;97356.11;1692481;84;25478;-71
2022/11/22 06:44:15;;;;;;;50.28;23.22;;;;;;;-1.46;89.95;97364.44;1692363;84;27348;-71
2022/11/22 06:46:41;;;;;;;48.52;23.52;;;;;;;-1.41;90.20;97365.80;1691977;84;25617;-70
2022/11/22 06:49:08;;;;;;;51.48;24.55;;;;;;;-1.35;90.15;97373.31;1692123;84;25746;-71
2022/11/22 06:51:34;;;;;;;50.20;23.52;;;;;;;-1.30;90.16;97365.24;1691972;84;25831;-70
2022/11/22 06:54:01;;;;;;;51.60;22.27;;;;;;;-1.30;90.02;97359.86;1692570;83;25522;-70
2022/11/22 06:56:32;;;;;;;27.75;13.18;;;;;;;-1.24;90.06;97370.11;1692263;84;27625;-71
2022/11/22 06:59:02;;;;;;;35.45;17.45;;;;;;;-1.29;90.29;97378.97;1691298;84;25685;-70
2022/11/22 07:01:31;;;;;;;37.98;16.65;;;;;;;-1.28;90.46;97373.86;1692188;84;25598;-71
2022/11/22 07:03:58;;;;;;;33.25;15.60;;;;;;;-1.29;90.77;97370.35;1692226;84;25732;-71
2022/11/22 07:06:31;;;;;;;47.65;23.40;;;;;;;-1.29;90.59;97359.59;1691953;84;25423;-71
2022/11/22 07:08:59;;;;;;;39.75;20.12;;;;;;;-1.30;90.78;97363.37;1692172;84;27381;-71
2022/11/22 07:11:30;;;;;;;23.73;11.40;;;;;;;-1.24;90.78;97371.45;1692225;84;25480;-69
2022/11/22 07:13:58;;;;;;;48.58;23.35;;;;;;;-1.24;90.98;97360.14;1692431;84;25573;-70
2022/11/22 07:16:25;;;;;;;38.58;17.98;;;;;;;-1.21;90.99;97372.26;1692241;84;25740;-71
2022/11/22 07:18:53;;;;;;;43.42;20.95;;;;;;;-1.19;90.94;97374.94;1692071;84;25783;-70
2022/11/22 07:21:22;;;;;;;33.92;18.62;;;;;;;-1.16;91.28;97374.41;1692105;84;27588;-69
2022/11/22 07:23:52;;;;;;;46.02;20.85;;;;;;;-1.06;91.67;97372.80;1692205;84;25680;-69
2022/11/22 07:26:20;;;;;;;46.00;21.33;;;;;;;-0.88;91.14;97368.75;1688366;83;25691;-69
2022/11/22 07:28:47;;;;;;;33.28;15.50;;;;;;;-0.75;90.65;97363.34;1692412;84;25763;-69
2022/11/22 07:31:16;;;;;;;47.93;21.68;;;;;;;-0.55;90.63;97365.75;1692755;83;25688;-69
2022/11/22 07:33:44;;;;;;;48.33;21.95;;;;;;;-0.36;90.19;97362.45;1692286;84;27338;-69
2022/11/22 07:36:21;;;;;;;44.03;21.85;;;;;;;-0.16;90.10;97361.05;1686345;84;25725;-69
2022/11/22 07:38:48;;;;;;;42.78;21.02;;;;;;;0.00;89.23;97359.64;1682154;85;25590;-69
2022/11/22 07:41:17;;;;;;;37.40;18.80;;;;;;;0.18;89.25;97361.43;1682144;85;25697;-69
2022/11/22 07:43:44;;;;;;;34.50;17.95;;;;;;;0.29;88.75;97362.19;1682209;85;25526;-69
2022/11/22 07:46:29;;;;;;;46.83;23.15;;;;;;;0.37;88.39;97361.58;1681962;85;28326;-68
2022/11/22 07:48:56;;;;;;;45.75;21.90;;;;;;;0.45;88.48;97358.30;1681811;85;25506;-67
2022/11/22 07:51:23;;;;;;;52.38;25.57;;;;;;;0.53;87.85;97370.92;1682224;85;25441;-67
2022/11/22 07:53:51;;;;;;;42.50;22.35;;;;;;;0.57;88.09;97374.13;1681736;85;25671;-67
2022/11/22 07:56:18;;;;;;;35.08;19.10;;;;;;;0.58;87.64;97357.42;1682304;85;25647;-67
2022/11/22 07:58:44;;;;;;;43.65;20.12;;;;;;;0.62;88.02;97359.81;1681950;85;27451;-68
2022/11/22 08:01:15;;;;;;;40.45;21.02;;;;;;;0.76;88.78;97364.03;1681847;85;25676;-67
2022/11/22 08:03:42;;;;;;;39.98;20.20;;;;;;;0.94;88.28;97363.07;1682519;85;25456;-67
2022/11/22 08:06:11;;;;;;;20.17;11.05;;;;;;;1.06;87.88;97359.47;1681917;85;25794;-69
2022/11/22 08:08:39;;;;;;;38.83;18.75;;;;;;;1.11;87.22;97351.34;1682208;85;25657;-67
2022/11/22 08:11:06;;;;;;;34.75;19.60;;;;;;;1.13;87.35;97358.59;1682315;85;28084;-67
2022/11/22 08:13:34;;;;;;;31.60;15.18;;;;;;;1.24;87.79;97361.22;1681862;85;25681;-66
2022/11/22 08:16:14;;;;;;;33.15;17.80;;;;;;;1.35;87.77;97358.66;1682304;85;25657;-67
2022/11/22 08:18:46;;;;;;;35.48;19.32;;;;;;;1.52;87.74;97349.31;1682325;84;25698;-67
2022/11/22 08:21:15;;;;;;;43.08;22.60;;;;;;;1.67;87.52;97352.38;1682211;85;25696;-66
2022/11/22 08:23:46;;;;;;;38.08;19.67;;;;;;;1.87;87.88;97352.70;1681677;85;28236;-65
2022/11/22 08:26:17;;;;;;;32.15;16.87;;;;;;;2.05;86.71;97354.92;1679707;85;25875;-65
2022/11/22 08:28:44;;;;;;;25.77;12.90;;;;;;;2.27;86.62;97343.54;1682248;85;25673;-66
2022/11/22 08:31:15;;;;;;;36.73;19.77;;;;;;;2.31;84.91;97344.59;1681911;85;25684;-66
2022/11/22 08:33:41;;;;;;;34.33;17.90;;;;;;;2.43;85.85;97352.80;1682217;85;25503;-66
2022/11/22 08:36:08;;;;;;;28.60;16.35;;;;;;;2.68;86.36;97347.55;1685794;83;27466;-67
2022/11/22 08:38:35;;;;;;;26.90;16.57;;;;;;;2.92;84.69;97352.61;1692497;84;25594;-68
2022/11/22 08:41:02;;;;;;;31.93;16.80;;;;;;;3.07;83.87;97348.84;1672296;84;25726;-69
2022/11/22 08:43:31;;;;;;;32.45;18.45;;;;;;;3.22;84.01;97351.28;1692260;84;26579;-70
2022/11/22 08:46:00;;;;;;;29.72;16.27;;;;;;;3.24;83.40;97342.33;1692574;84;25657;-70
2022/11/22 08:48:29;;;;;;;30.65;17.67;;;;;;;3.32;82.88;97348.15;1692019;84;27511;-71
2022/11/22 08:51:00;;;;;;;23.98;14.60;;;;;;;3.37;82.92;97347.50;1692486;84;25638;-71
2022/11/22 08:53:28;;;;;;;31.90;17.02;;;;;;;3.45;81.80;97340.59;1691924;84;25485;-71
2022/11/22 08:55:55;;;;;;;26.85;14.68;;;;;;;3.47;82.20;97347.06;1692295;84;25663;-71
2022/11/22 08:58:22;;;;;;;29.30;16.20;;;;;;;3.46;80.55;97353.59;1672164;84;25622;-73
2022/11/22 09:00:48;;;;;;;31.52;18.27;;;;;;;3.49;82.44;97352.42;1692371;84;27438;-74
2022/11/22 09:03:15;;;;;;;27.42;17.52;;;;;;;3.64;82.87;97344.59;1692262;84;25768;-74
2022/11/22 09:05:41;;;;;;;30.02;17.95;;;;;;;3.76;81.32;97347.33;1692496;84;25517;-75
2022/11/22 09:08:08;;;;;;;30.25;15.90;;;;;;;3.86;81.55;97345.77;1692380;84;26532;-76
2022/11/22 09:10:34;;;;;;;23.42;12.65;;;;;;;4.04;79.79;97351.39;1692444;84;25697;-76
2022/11/22 09:13:00;;;;;;;22.95;13.95;;;;;;;4.21;79.78;97346.70;1692447;84;28057;-77
2022/11/22 09:15:27;;;;;;;26.33;15.68;;;;;;;4.40;78.91;97349.80;1692225;84;25686;-78
2022/11/22 09:18:02;;;;;;;26.60;15.28;;;;;;;4.66;79.25;97348.44;1692483;84;25657;-78
2022/11/22 09:20:28;;;;;;;30.20;15.70;;;;;;;4.87;78.00;97345.47;1692441;84;25717;-79
2022/11/22 09:22:54;;;;;;;22.55;13.83;;;;;;;5.21;78.26;97350.08;1692451;84;25411;-80
2022/11/22 09:25:21;;;;;;;24.18;14.07;;;;;;;5.60;76.73;97341.48;1692350;84;27378;-79
2022/11/22 09:27:47;;;;;;;24.82;14.53;;;;;;;6.05;75.76;97332.41;1692086;84;26040;-78
2022/11/22 09:30:15;;;;;;;20.65;12.43;;;;;;;6.28;73.69;97343.16;1692318;84;25624;-77
2022/11/22 09:32:43;;;;;;;24.00;15.60;;;;;;;6.39;72.79;97336.86;1689161;83;25828;-77
2022/11/22 09:35:10;;;;;;;24.95;14.90;;;;;;;6.52;71.81;97348.70;1692426;84;25826;-77
2022/11/22 09:37:36;;;;;;;20.40;12.60;;;;;;;6.71;73.20;97343.52;1707357;83;27465;-75
2022/11/22 09:40:02;;;;;;;23.92;15.20;;;;;;;6.90;70.76;97337.17;1710211;83;25730;-75
2022/11/22 09:43:12;;;;;;;23.38;15.30;;;;;;;6.89;70.07;97334.22;1710298;83;25536;-75
2022/11/22 09:46:33;;;;;;;25.48;14.45;;;;;;;7.04;71.60;97336.19;1709519;83;25730;-75
2022/11/22 09:49:34;;;;;;;24.90;15.65;;;;;;;7.40;71.15;97335.56;1691898;83;25689;-74
2022/11/22 09:52:09;;;;;;;22.32;13.80;;;;;;;7.88;70.17;97329.50;1710369;83;28150;-74
2022/11/22 09:54:43;;;;;;;22.35;13.85;;;;;;;8.26;66.98;97324.32;1710210;83;25647;-75
2022/11/22 09:57:34;;;;;;;21.95;14.00;;;;;;;8.40;66.14;97328.14;1710259;83;25481;-74
2022/11/22 10:00:10;;;;;;;;;;;;;;;8.29;65.95;97326.36;1712818;83;25757;-74
2022/11/22 10:02:41;;;;;;;17.42;10.70;;;;;;;8.61;64.36;97332.84;1709538;83;25599;-75
2022/11/22 10:05:15;;;;;;;20.85;14.43;;;;;;;8.69;63.92;97331.19;1710010;83;27382;-75
2022/11/22 10:07:47;;;;;;;20.70;13.80;;;;;;;8.84;66.72;97331.13;1710143;83;25683;-76
2022/11/22 10:10:18;;;;;;;21.62;13.58;;;;;;;9.04;65.72;97331.66;1709290;83;25645;-75
2022/11/22 10:12:49;;;;;;;20.10;11.55;;;;;;;9.10;62.28;97332.83;1709577;83;25670;-76
2022/11/22 10:15:47;;;;;;;22.85;13.13;;;;;;;9.08;61.62;97324.95;1709833;83;25703;-77
2022/11/22 10:18:44;;;;;;;20.23;14.03;;;;;;;9.15;61.58;97323.03;1708709;83;29513;-75
2022/11/22 10:21:13;;;;;;;17.42;10.08;;;;;;;9.52;62.34;97319.02;1708992;83;27264;-75
2022/11/22 10:23:45;;;;;;;19.60;12.13;;;;;;;10.11;61.93;97320.86;1710036;83;25728;-76
2022/11/22 10:26:33;;;;;;;18.17;11.33;;;;;;;10.31;60.43;97312.84;1709850;83;25767;-75
2022/11/22 10:29:32;;;;;;;16.55;11.55;;;;;;;10.66;60.93;97309.02;1709971;83;25591;-75
2022/11/22 10:32:38;;;;;;;18.35;12.53;;;;;;;11.01;59.06;97303.52;1674359;85;27438;-75
2022/11/22 10:35:31;;;;;;;16.97;10.72;;;;;;;10.73;57.18;97301.56;1674295;85;25759;-77
2022/11/22 10:38:28;;;;;;;13.90;9.28;;;;;;;10.27;57.67;97291.62;1575706;89;25587;-77
2022/11/22 10:41:35;;;;;;;16.10;10.72;;;;;;;10.22;57.70;97297.33;1570088;91;25568;-78
2022/11/22 10:44:38;;;;;;;15.72;10.58;;;;;;;9.51;58.31;97285.17;1571663;91;25524;-78
2022/11/22 10:47:51;;;;;;;17.02;11.43;;;;;;;9.51;58.31;97285.17;1540983;93;27407;-79
2022/11/22 10:50:55;;;;;;;16.48;11.48;;;;;;;9.22;60.29;97286.95;1540936;92;25566;-79
2022/11/22 10:53:39;;;;;;;16.52;11.30;;;;;;;9.03;60.76;97299.20;1541009;93;25734;-77
2022/11/22 10:56:29;;;;;;;14.55;9.55;;;;;;;8.92;62.09;97296.09;1540890;92;25952;-79
2022/11/22 10:59:21;;;;;;;16.17;10.98;;;;;;;8.74;61.12;97298.19;1541124;93;25863;-78
2022/11/22 11:02:00;;;;;;;16.87;11.00;;;;;;;8.43;62.23;97303.49;1540975;92;27668;-74
2022/11/22 11:04:35;;;;;;;21.05;12.93;;;;;;;8.22;62.76;97300.17;1541419;92;25529;-79
2022/11/22 11:07:04;;;;;;;19.40;12.00;;;;;;;8.07;63.57;97305.09;1541309;93;25722;-74
2022/11/22 11:09:46;;;;;;;19.90;12.80;;;;;;;7.93;63.70;97294.41;1594955;87;26506;-81
2022/11/22 11:12:42;;;;;;;20.97;12.40;;;;;;;7.86;64.32;97296.88;1610284;88;25797;-78
2022/11/22 11:15:44;;;;;;;18.57;12.03;;;;;;;7.75;64.50;97293.72;1612307;88;28102;-79
2022/11/22 11:18:34;;;;;;;18.92;11.43;;;;;;;7.57;64.66;97301.95;1613845;88;25531;-81
2022/11/22 11:21:00;;;;;;;19.75;12.15;;;;;;;7.42;65.07;97302.53;1613627;88;25718;-82
2022/11/22 11:23:27;;;;;;;20.02;12.30;;;;;;;7.18;65.32;97301.14;1622122;85;25740;-83
2022/11/22 11:25:53;;;;;;;20.82;12.40;;;;;;;7.06;65.91;97301.81;1677907;85;25621;-80
2022/11/22 11:28:27;;;;;;;18.98;9.83;;;;;;;6.95;65.88;97306.25;1678125;85;27445;-82
2022/11/22 11:31:00;;;;;;;18.55;11.30;;;;;;;6.84;66.26;97304.97;1678075;85;25700;-82
2022/11/22 11:33:34;;;;;;;18.48;11.25;;;;;;;6.68;66.63;97305.45;1677639;85;25486;-85
2022/11/22 11:36:05;;;;;;;17.70;10.93;;;;;;;6.56;67.25;97302.03;1678369;85;25756;-85
2022/11/22 11:38:43;;;;;;;20.85;12.58;;;;;;;6.51;67.51;97298.13;1709750;83;25632;-84
2022/11/22 11:41:30;;;;;;;20.80;12.80;;;;;;;6.52;67.75;97307.88;1710059;83;27677;-85
2022/11/22 11:44:00;;;;;;;23.25;13.58;;;;;;;6.56;68.09;97306.69;1709979;83;25599;-78
2022/11/22 11:46:31;;;;;;;22.97;13.37;;;;;;;6.62;68.25;97308.91;1710703;83;25707;-86
2022/11/22 11:49:19;;;;;;;51.53;19.30;;;;;;;6.72;68.32;97306.98;1719291;81;25731;-83
2022/11/22 11:52:11;;;;;;;26.27;11.97;;;;;;;6.75;68.54;97305.80;1744130;82;25759;-85